Terminal Aerodrome Forecast
Issued by NWS

Home | Current Version | Previous Version | Text Only | Print | Product List | Glossary On
Versions: 1 2 3 4 5 6 7 8 9 10 11 12 13 14 15 16 17 18 19 20 21 22 23 24 25 26 27 28 29 30
432
FTUS43 KAPX 241159 AAA
TAFTVC
TAF AMD
KTVC 241159Z 2412/2512 VRB03KT 3SM BR VCSH OVC002
      TEMPO 2412/2414 1SM -SHRA
     FM241400 06004KT P6SM VCSH OVC012
     FM241600 06006KT P6SM VCSH OVC060
     FM242300 04009KT P6SM BKN070
     FM250900 03006KT P6SM BKN008
     FM251000 03006KT P6SM BKN015=

USA.gov is the U.S. government's official web portal to all federal, state and local government web resources and services.